Wetterdaten: Woche 27.02.12 - 04.03.12 (KW9)
Datum Zeit Temperatur Luftfeuchte Luftdruck Niederschlag Windrichtung Sonnenschein Solar Wind
27.02.2012 00:00 0,4 C 94 % 1027,3 hPa 0,0 l/m N 0,00 h 0 W/m 2,8 km/h (1 Bft)
27.02.2012 01:00 -0,1 C 94 % 1027,3 hPa 0,0 l/m N 0,00 h 0 W/m 1,3 km/h (1 Bft)
27.02.2012 02:00 -0,4 C 95 % 1027,3 hPa 0,0 l/m N 0,00 h 0 W/m 0,0 km/h (0 Bft)
27.02.2012 03:00 -0,2 C 95 % 1027,2 hPa 0,0 l/m N 0,00 h 0 W/m 2,0 km/h (1 Bft)
27.02.2012 04:00 -0,3 C 96 % 1027,1 hPa 0,0 l/m N 0,00 h 0 W/m 0,7 km/h (0 Bft)
27.02.2012 05:00 -0,8 C 96 % 1027,3 hPa 0,0 l/m N 0,00 h 0 W/m 0,4 km/h (0 Bft)
27.02.2012 06:00 -0,8 C 96 % 1027,2 hPa 0,0 l/m N 0,00 h 0 W/m 0,7 km/h (0 Bft)
27.02.2012 07:00 -1,2 C 97 % 1027,2 hPa 0,0 l/m N 0,00 h 9 W/m 3,2 km/h (1 Bft)
27.02.2012 08:00 -1,3 C 97 % 1027,4 hPa 0,0 l/m W 0,00 h 60 W/m 2,0 km/h (1 Bft)
27.02.2012 09:00 -1,3 C 98 % 1027,8 hPa 0,0 l/m W 0,00 h 97 W/m 1,2 km/h (1 Bft)
27.02.2012 10:00 -0,9 C 98 % 1027,8 hPa 0,0 l/m W 0,00 h 195 W/m 3,3 km/h (1 Bft)
27.02.2012 11:00 0,5 C 99 % 1028,1 hPa 0,0 l/m W 0,25 h 230 W/m 4,5 km/h (1 Bft)
27.02.2012 12:00 2,7 C 97 % 1027,6 hPa 0,0 l/m W 0,33 h 352 W/m 6,1 km/h (2 Bft)
27.02.2012 13:00 5,0 C 77 % 1026,6 hPa 0,0 l/m W-SW 0,58 h 438 W/m 7,5 km/h (2 Bft)
27.02.2012 14:00 5,2 C 69 % 1025,9 hPa 0,0 l/m W-SW 0,25 h 241 W/m 4,7 km/h (1 Bft)
27.02.2012 15:00 5,8 C 65 % 1025,4 hPa 0,0 l/m S-SW 1,00 h 372 W/m 8,2 km/h (2 Bft)
27.02.2012 16:00 5,7 C 64 % 1025,1 hPa 0,0 l/m SW 1,00 h 209 W/m 9,0 km/h (2 Bft)
27.02.2012 17:00 4,3 C 70 % 1025,0 hPa 0,0 l/m SW 0,50 h 42 W/m 5,7 km/h (1 Bft)
27.02.2012 18:00 2,9 C 75 % 1025,3 hPa 0,0 l/m N 0,00 h 0 W/m 2,3 km/h (1 Bft)
27.02.2012 19:00 1,8 C 78 % 1025,4 hPa 0,0 l/m N 0,00 h 0 W/m 0,4 km/h (0 Bft)
27.02.2012 20:00 1,1 C 82 % 1025,8 hPa 0,0 l/m N 0,00 h 0 W/m 0,1 km/h (0 Bft)
27.02.2012 21:00 0,9 C 86 % 1026,1 hPa 0,0 l/m N 0,00 h 0 W/m 1,5 km/h (1 Bft)
27.02.2012 22:00 1,1 C 87 % 1026,2 hPa 0,0 l/m N 0,00 h 0 W/m 1,6 km/h (1 Bft)
27.02.2012 23:00 1,1 C 86 % 1026,0 hPa 0,0 l/m SW 0,00 h 0 W/m 3,3 km/h (1 Bft)
28.02.2012 00:00 0,9 C 86 % 1025,8 hPa 0,0 l/m N 0,00 h 0 W/m 1,2 km/h (1 Bft)
28.02.2012 01:00 0,9 C 87 % 1025,6 hPa 0,0 l/m N 0,00 h 0 W/m 0,4 km/h (0 Bft)
28.02.2012 02:00 1,2 C 87 % 1025,8 hPa 0,0 l/m N 0,00 h 0 W/m 0,0 km/h (0 Bft)
28.02.2012 03:00 1,0 C 88 % 1025,5 hPa 0,0 l/m N 0,00 h 0 W/m 0,9 km/h (0 Bft)
28.02.2012 04:00 0,9 C 89 % 1025,1 hPa 0,0 l/m SW 0,00 h 0 W/m 3,5 km/h (1 Bft)
28.02.2012 05:00 1,2 C 89 % 1025,2 hPa 0,0 l/m SW 0,00 h 0 W/m 5,2 km/h (1 Bft)
28.02.2012 06:00 1,1 C 89 % 1025,6 hPa 0,0 l/m SW 0,00 h 0 W/m 6,1 km/h (2 Bft)
28.02.2012 07:00 1,0 C 91 % 1026,0 hPa 0,2 l/m S-SW 0,00 h 6 W/m 6,7 km/h (2 Bft)
28.02.2012 08:00 1,2 C 93 % 1026,4 hPa 0,0 l/m S-SW 0,00 h 39 W/m 6,6 km/h (2 Bft)
28.02.2012 09:00 2,1 C 92 % 1026,2 hPa 0,0 l/m S-SW 0,00 h 102 W/m 9,4 km/h (2 Bft)
28.02.2012 10:00 3,2 C 87 % 1026,4 hPa 0,0 l/m S-SW 0,00 h 166 W/m 8,7 km/h (2 Bft)
28.02.2012 11:00 5,2 C 82 % 1026,1 hPa 0,0 l/m S-SW 0,75 h 387 W/m 11,6 km/h (2 Bft)
28.02.2012 12:00 7,2 C 74 % 1025,5 hPa 0,0 l/m S-SW 0,42 h 354 W/m 12,6 km/h (3 Bft)
28.02.2012 13:00 7,7 C 72 % 1025,0 hPa 0,0 l/m S-SW 0,00 h 197 W/m 13,8 km/h (3 Bft)
28.02.2012 14:00 8,0 C 71 % 1024,9 hPa 0,0 l/m SW 0,00 h 140 W/m 11,8 km/h (2 Bft)
28.02.2012 15:00 8,1 C 70 % 1024,6 hPa 0,0 l/m SW 0,00 h 74 W/m 13,7 km/h (3 Bft)
28.02.2012 16:00 7,8 C 72 % 1024,3 hPa 0,0 l/m SW 0,00 h 40 W/m 11,0 km/h (2 Bft)
28.02.2012 17:00 7,2 C 77 % 1024,5 hPa 0,0 l/m SW 0,00 h 15 W/m 2,8 km/h (1 Bft)
28.02.2012 18:00 6,3 C 79 % 1025,0 hPa 0,0 l/m N 0,00 h 0 W/m 0,5 km/h (0 Bft)
28.02.2012 19:00 5,3 C 83 % 1025,3 hPa 0,0 l/m SW 0,00 h 0 W/m 1,9 km/h (1 Bft)
28.02.2012 20:00 4,8 C 83 % 1025,4 hPa 0,0 l/m N 0,00 h 0 W/m 0,3 km/h (0 Bft)
28.02.2012 21:00 4,3 C 85 % 1025,3 hPa 0,0 l/m N 0,00 h 0 W/m 0,3 km/h (0 Bft)
28.02.2012 22:00 3,8 C 87 % 1025,3 hPa 0,0 l/m N 0,00 h 0 W/m 0,5 km/h (0 Bft)
28.02.2012 23:00 3,6 C 87 % 1025,1 hPa 0,0 l/m N 0,00 h 0 W/m 0,1 km/h (0 Bft)
29.02.2012 00:00 2,8 C 87 % 1025,1 hPa 0,0 l/m N 0,00 h 0 W/m 0,5 km/h (0 Bft)
29.02.2012 01:00 1,9 C 89 % 1025,3 hPa 0,0 l/m N 0,00 h 0 W/m 0,7 km/h (0 Bft)
29.02.2012 02:00 1,3 C 90 % 1025,6 hPa 0,0 l/m SW 0,00 h 0 W/m 0,3 km/h (0 Bft)
29.02.2012 03:00 1,3 C 93 % 1025,7 hPa 0,0 l/m N 0,00 h 0 W/m 1,2 km/h (1 Bft)
29.02.2012 04:00 1,2 C 92 % 1025,6 hPa 0,0 l/m N 0,00 h 0 W/m 0,0 km/h (0 Bft)
29.02.2012 05:00 0,8 C 93 % 1025,7 hPa 0,0 l/m N 0,00 h 0 W/m 0,0 km/h (0 Bft)
29.02.2012 06:00 0,4 C 94 % 1025,9 hPa 0,0 l/m N 0,00 h 0 W/m 0,0 km/h (0 Bft)
29.02.2012 07:00 0,8 C 95 % 1025,7 hPa 0,0 l/m N 0,00 h 26 W/m 0,1 km/h (0 Bft)
29.02.2012 08:00 2,8 C 91 % 1025,4 hPa 0,0 l/m N 0,92 h 149 W/m 1,2 km/h (1 Bft)
29.02.2012 09:00 5,2 C 87 % 1025,2 hPa 0,0 l/m SW 1,00 h 307 W/m 2,4 km/h (1 Bft)
29.02.2012 10:00 7,9 C 85 % 1025,1 hPa 0,0 l/m SW 1,00 h 449 W/m 3,9 km/h (1 Bft)
29.02.2012 11:00 10,3 C 79 % 1024,7 hPa 0,0 l/m N 1,00 h 546 W/m 6,7 km/h (2 Bft)
29.02.2012 12:00 12,2 C 74 % 1023,9 hPa 0,0 l/m NO 1,00 h 613 W/m 9,5 km/h (2 Bft)
29.02.2012 13:00 12,6 C 72 % 1023,5 hPa 0,0 l/m O-NO 0,17 h 316 W/m 11,2 km/h (2 Bft)
29.02.2012 14:00 13,1 C 71 % 1023,2 hPa 0,0 l/m O-NO 0,58 h 402 W/m 12,6 km/h (3 Bft)
29.02.2012 15:00 12,9 C 72 % 1022,8 hPa 0,0 l/m NO 0,92 h 354 W/m 14,9 km/h (3 Bft)
29.02.2012 16:00 12,8 C 73 % 1022,8 hPa 0,0 l/m O-NO 1,00 h 237 W/m 13,3 km/h (3 Bft)
29.02.2012 17:00 11,8 C 76 % 1022,9 hPa 0,0 l/m O-NO 0,42 h 46 W/m 8,8 km/h (2 Bft)
29.02.2012 18:00 9,7 C 83 % 1023,3 hPa 0,0 l/m O-NO 0,00 h 5 W/m 6,4 km/h (2 Bft)
29.02.2012 19:00 8,6 C 89 % 1023,5 hPa 0,0 l/m NO 0,00 h 0 W/m 6,1 km/h (2 Bft)
29.02.2012 20:00 7,5 C 92 % 1023,5 hPa 0,0 l/m NO 0,00 h 0 W/m 6,0 km/h (2 Bft)
29.02.2012 21:00 6,3 C 95 % 1023,7 hPa 0,0 l/m NO 0,00 h 0 W/m 4,4 km/h (1 Bft)
29.02.2012 22:00 5,6 C 96 % 1023,5 hPa 0,0 l/m NO 0,00 h 0 W/m 5,1 km/h (1 Bft)
29.02.2012 23:00 5,1 C 97 % 1023,3 hPa 0,0 l/m NO 0,00 h 0 W/m 6,5 km/h (2 Bft)
01.03.2012 00:00 4,8 C 97 % 1023,0 hPa 0,0 l/m NO 0,00 h 0 W/m 3,5 km/h (1 Bft)
01.03.2012 01:00 4,6 C 97 % 1023,0 hPa 0,0 l/m NO 0,00 h 0 W/m 4,8 km/h (1 Bft)
01.03.2012 02:00 4,7 C 98 % 1022,7 hPa 0,0 l/m NO 0,00 h 0 W/m 7,2 km/h (2 Bft)
01.03.2012 03:00 4,8 C 98 % 1022,6 hPa 0,0 l/m N-NO 0,00 h 0 W/m 9,3 km/h (2 Bft)
01.03.2012 04:00 4,7 C 98 % 1022,5 hPa 0,0 l/m N-NO 0,00 h 0 W/m 7,8 km/h (2 Bft)
01.03.2012 05:00 4,2 C 98 % 1022,4 hPa 0,0 l/m N-NO 0,00 h 0 W/m 9,0 km/h (2 Bft)
01.03.2012 06:00 3,7 C 98 % 1022,5 hPa 0,0 l/m N-NO 0,00 h 0 W/m 6,7 km/h (2 Bft)
01.03.2012 07:00 3,4 C 98 % 1023,0 hPa 0,0 l/m NO 0,00 h 12 W/m 6,0 km/h (2 Bft)
01.03.2012 08:00 3,7 C 99 % 1023,4 hPa 0,0 l/m NO 0,00 h 46 W/m 6,9 km/h (2 Bft)
01.03.2012 09:00 4,3 C 99 % 1023,6 hPa 0,0 l/m NO 0,00 h 133 W/m 8,8 km/h (2 Bft)
01.03.2012 10:00 5,5 C 97 % 1023,7 hPa 0,0 l/m NO 0,33 h 256 W/m 8,4 km/h (2 Bft)
01.03.2012 11:00 7,4 C 91 % 1023,6 hPa 0,0 l/m NO 0,67 h 431 W/m 11,3 km/h (2 Bft)
01.03.2012 12:00 9,2 C 86 % 1023,1 hPa 0,0 l/m N 0,92 h 561 W/m 11,0 km/h (2 Bft)
01.03.2012 13:00 11,3 C 80 % 1022,5 hPa 0,0 l/m N-NO 1,00 h 575 W/m 9,4 km/h (2 Bft)
01.03.2012 14:00 13,3 C 75 % 1022,2 hPa 0,0 l/m N-NO 1,00 h 505 W/m 11,7 km/h (2 Bft)
01.03.2012 15:00 13,7 C 77 % 1022,1 hPa 0,0 l/m N-NO 1,00 h 386 W/m 13,0 km/h (3 Bft)
01.03.2012 16:00 13,2 C 80 % 1022,3 hPa 0,0 l/m N-NO 1,00 h 225 W/m 12,9 km/h (3 Bft)
01.03.2012 17:00 11,4 C 85 % 1022,9 hPa 0,0 l/m N-NO 0,58 h 50 W/m 9,8 km/h (2 Bft)
01.03.2012 18:00 8,7 C 93 % 1023,8 hPa 0,0 l/m N-NO 0,00 h 6 W/m 6,0 km/h (2 Bft)
01.03.2012 19:00 7,8 C 97 % 1024,4 hPa 0,0 l/m N-NO 0,00 h 0 W/m 5,9 km/h (2 Bft)
01.03.2012 20:00 7,4 C 98 % 1024,5 hPa 0,0 l/m N-NO 0,00 h 0 W/m 4,5 km/h (1 Bft)
01.03.2012 21:00 7,2 C 99 % 1024,6 hPa 0,0 l/m N 0,00 h 0 W/m 2,7 km/h (1 Bft)
01.03.2012 22:00 7,1 C 99 % 1024,6 hPa 0,0 l/m N 0,00 h 0 W/m 1,2 km/h (1 Bft)
01.03.2012 23:00 6,7 C 99 % 1024,5 hPa 0,2 l/m N 0,00 h 0 W/m 0,9 km/h (0 Bft)
02.03.2012 00:00 6,2 C 99 % 1024,7 hPa 0,0 l/m N 0,00 h 0 W/m 1,5 km/h (1 Bft)
02.03.2012 01:00 5,7 C 99 % 1024,6 hPa 0,0 l/m N-NO 0,00 h 0 W/m 1,5 km/h (1 Bft)
02.03.2012 02:00 5,2 C 99 % 1024,5 hPa 0,0 l/m N-NO 0,00 h 0 W/m 1,6 km/h (1 Bft)
02.03.2012 03:00 4,7 C 99 % 1024,1 hPa 0,0 l/m N 0,00 h 0 W/m 1,9 km/h (1 Bft)
02.03.2012 04:00 3,8 C 99 % 1024,2 hPa 0,0 l/m N-NO 0,00 h 0 W/m 2,3 km/h (1 Bft)
02.03.2012 05:00 2,4 C 99 % 1024,5 hPa 0,0 l/m N 0,00 h 0 W/m 1,3 km/h (1 Bft)
02.03.2012 06:00 1,3 C 99 % 1024,6 hPa 0,2 l/m N 0,00 h 0 W/m 0,0 km/h (0 Bft)
02.03.2012 07:00 0,6 C 99 % 1025,1 hPa 0,0 l/m N 0,00 h 25 W/m 0,7 km/h (0 Bft)
02.03.2012 08:00 0,6 C 99 % 1025,5 hPa 0,0 l/m N 0,00 h 92 W/m 0,5 km/h (0 Bft)
02.03.2012 09:00 2,5 C 100 % 1025,7 hPa 0,0 l/m N 0,92 h 276 W/m 1,5 km/h (1 Bft)
02.03.2012 10:00 6,2 C 100 % 1025,5 hPa 0,0 l/m N-NO 1,00 h 435 W/m 3,6 km/h (1 Bft)
02.03.2012 11:00 10,4 C 85 % 1025,1 hPa 0,0 l/m N 1,00 h 535 W/m 4,9 km/h (1 Bft)
02.03.2012 12:00 13,1 C 75 % 1024,6 hPa 0,0 l/m O-NO 1,00 h 571 W/m 5,5 km/h (1 Bft)
02.03.2012 13:00 14,8 C 67 % 1023,7 hPa 0,0 l/m O 1,00 h 555 W/m 6,9 km/h (2 Bft)
02.03.2012 14:00 15,7 C 62 % 1023,0 hPa 0,0 l/m SW 1,00 h 483 W/m 8,2 km/h (2 Bft)
02.03.2012 15:00 16,3 C 61 % 1022,5 hPa 0,0 l/m SW 1,00 h 363 W/m 9,0 km/h (2 Bft)
02.03.2012 16:00 16,1 C 61 % 1022,3 hPa 0,0 l/m SW 1,00 h 215 W/m 6,1 km/h (2 Bft)
02.03.2012 17:00 14,3 C 68 % 1022,4 hPa 0,0 l/m SW 0,50 h 51 W/m 1,5 km/h (1 Bft)
02.03.2012 18:00 10,6 C 81 % 1022,5 hPa 0,0 l/m N 0,00 h 6 W/m 0,8 km/h (0 Bft)
02.03.2012 19:00 9,1 C 88 % 1022,9 hPa 0,0 l/m W 0,00 h 0 W/m 4,4 km/h (1 Bft)
02.03.2012 20:00 7,3 C 95 % 1023,2 hPa 0,0 l/m N-NW 0,00 h 0 W/m 7,1 km/h (2 Bft)
02.03.2012 21:00 7,1 C 97 % 1023,4 hPa 0,0 l/m NO 0,00 h 0 W/m 7,9 km/h (2 Bft)
02.03.2012 22:00 6,9 C 98 % 1023,3 hPa 0,0 l/m NO 0,00 h 0 W/m 6,4 km/h (2 Bft)
02.03.2012 23:00 6,9 C 99 % 1023,0 hPa 0,0 l/m NO 0,00 h 0 W/m 5,2 km/h (1 Bft)
03.03.2012 00:00 6,7 C 99 % 1022,7 hPa 0,0 l/m NO 0,00 h 0 W/m 5,1 km/h (1 Bft)
03.03.2012 01:00 6,6 C 99 % 1022,5 hPa 0,0 l/m NO 0,00 h 0 W/m 5,5 km/h (1 Bft)
03.03.2012 02:00 6,3 C 99 % 1022,1 hPa 0,0 l/m NO 0,00 h 0 W/m 4,7 km/h (1 Bft)
03.03.2012 03:00 6,1 C 99 % 1021,7 hPa 0,0 l/m NO 0,00 h 0 W/m 4,0 km/h (1 Bft)
03.03.2012 04:00 5,7 C 99 % 1021,6 hPa 0,0 l/m NO 0,00 h 0 W/m 4,3 km/h (1 Bft)
03.03.2012 05:00 5,4 C 99 % 1021,5 hPa 0,0 l/m N 0,00 h 0 W/m 2,7 km/h (1 Bft)
03.03.2012 06:00 5,1 C 99 % 1021,3 hPa 0,0 l/m N 0,00 h 0 W/m 1,9 km/h (1 Bft)
03.03.2012 07:00 4,8 C 99 % 1021,5 hPa 0,0 l/m NO 0,00 h 13 W/m 2,1 km/h (1 Bft)
03.03.2012 08:00 4,7 C 99 % 1021,9 hPa 0,0 l/m NO 0,00 h 40 W/m 1,7 km/h (1 Bft)
03.03.2012 09:00 4,7 C 99 % 1022,1 hPa 0,0 l/m N 0,00 h 75 W/m 2,1 km/h (1 Bft)
03.03.2012 10:00 5,6 C 98 % 1022,4 hPa 0,0 l/m NO 0,00 h 169 W/m 6,3 km/h (2 Bft)
03.03.2012 11:00 7,1 C 93 % 1022,5 hPa 0,0 l/m S 0,50 h 386 W/m 8,2 km/h (2 Bft)
03.03.2012 12:00 8,9 C 87 % 1022,1 hPa 0,0 l/m S 1,00 h 557 W/m 8,6 km/h (2 Bft)
03.03.2012 13:00 11,1 C 80 % 1021,5 hPa 0,0 l/m S-SW 1,00 h 582 W/m 7,9 km/h (2 Bft)
03.03.2012 14:00 13,5 C 71 % 1020,9 hPa 0,0 l/m S-SO 1,00 h 520 W/m 9,0 km/h (2 Bft)
03.03.2012 15:00 14,6 C 59 % 1020,3 hPa 0,0 l/m S 1,00 h 362 W/m 8,7 km/h (2 Bft)
03.03.2012 16:00 14,8 C 50 % 1020,1 hPa 0,0 l/m S-SW 0,50 h 160 W/m 9,0 km/h (2 Bft)
03.03.2012 17:00 12,9 C 57 % 1020,5 hPa 0,0 l/m NW 0,00 h 31 W/m 6,8 km/h (2 Bft)
03.03.2012 18:00 10,2 C 84 % 1021,3 hPa 0,0 l/m N 0,00 h 0 W/m 6,0 km/h (2 Bft)
03.03.2012 19:00 8,5 C 88 % 1021,8 hPa 0,0 l/m N 0,00 h 0 W/m 5,1 km/h (1 Bft)
03.03.2012 20:00 7,7 C 91 % 1022,1 hPa 0,0 l/m N 0,00 h 0 W/m 3,5 km/h (1 Bft)
03.03.2012 21:00 7,1 C 92 % 1022,4 hPa 0,0 l/m N 0,00 h 0 W/m 3,6 km/h (1 Bft)
03.03.2012 22:00 6,5 C 94 % 1022,7 hPa 0,0 l/m N 0,00 h 0 W/m 2,4 km/h (1 Bft)
03.03.2012 23:00 6,2 C 94 % 1022,8 hPa 0,0 l/m N 0,00 h 0 W/m 2,3 km/h (1 Bft)
04.03.2012 00:00 5,8 C 94 % 1022,9 hPa 0,0 l/m N 0,00 h 0 W/m 2,4 km/h (1 Bft)
04.03.2012 01:00 5,4 C 95 % 1023,3 hPa 0,0 l/m N 0,00 h 0 W/m 2,4 km/h (1 Bft)
04.03.2012 02:00 5,0 C 95 % 1023,2 hPa 0,0 l/m N 0,00 h 0 W/m 0,8 km/h (0 Bft)
04.03.2012 03:00 4,8 C 96 % 1023,0 hPa 0,0 l/m N 0,00 h 0 W/m 3,1 km/h (1 Bft)
04.03.2012 04:00 5,1 C 96 % 1022,7 hPa 0,0 l/m N 0,00 h 0 W/m 0,7 km/h (0 Bft)
04.03.2012 05:00 5,2 C 97 % 1022,4 hPa 0,0 l/m N 0,00 h 0 W/m 4,7 km/h (1 Bft)
04.03.2012 06:00 5,1 C 97 % 1022,1 hPa 0,0 l/m N 0,00 h 0 W/m 3,1 km/h (1 Bft)
04.03.2012 07:00 5,0 C 97 % 1021,9 hPa 0,0 l/m N 0,00 h 6 W/m 3,1 km/h (1 Bft)
04.03.2012 08:00 4,9 C 97 % 1021,6 hPa 0,0 l/m N 0,00 h 12 W/m 5,6 km/h (1 Bft)
04.03.2012 09:00 4,9 C 97 % 1021,2 hPa 0,0 l/m N 0,00 h 28 W/m 6,5 km/h (2 Bft)
04.03.2012 10:00 5,0 C 97 % 1020,9 hPa 0,0 l/m NO 0,00 h 40 W/m 6,9 km/h (2 Bft)
04.03.2012 11:00 5,7 C 94 % 1020,4 hPa 0,0 l/m NO 0,00 h 79 W/m 7,2 km/h (2 Bft)
04.03.2012 12:00 6,4 C 91 % 1019,7 hPa 0,0 l/m NO 0,00 h 118 W/m 7,1 km/h (2 Bft)
04.03.2012 13:00 7,7 C 84 % 1018,6 hPa 0,0 l/m O-NO 0,00 h 199 W/m 7,5 km/h (2 Bft)
04.03.2012 14:00 8,4 C 78 % 1017,5 hPa 0,0 l/m O-NO 0,00 h 149 W/m 7,6 km/h (2 Bft)
04.03.2012 15:00 8,4 C 77 % 1017,1 hPa 0,0 l/m O 0,00 h 113 W/m 7,1 km/h (2 Bft)
04.03.2012 16:00 8,4 C 78 % 1016,6 hPa 0,0 l/m O 0,25 h 112 W/m 7,6 km/h (2 Bft)
04.03.2012 17:00 7,9 C 84 % 1016,4 hPa 0,0 l/m O 0,00 h 14 W/m 8,4 km/h (2 Bft)
04.03.2012 18:00 7,4 C 86 % 1016,0 hPa 0,0 l/m O 0,00 h 0 W/m 4,7 km/h (1 Bft)
04.03.2012 19:00 6,8 C 87 % 1016,0 hPa 0,0 l/m N 0,00 h 0 W/m 2,0 km/h (1 Bft)
04.03.2012 20:00 6,2 C 89 % 1015,8 hPa 0,0 l/m O 0,00 h 0 W/m 1,9 km/h (1 Bft)
04.03.2012 21:00 5,2 C 89 % 1015,5 hPa 0,0 l/m N 0,00 h 0 W/m 0,0 km/h (0 Bft)
04.03.2012 22:00 4,3 C 91 % 1015,2 hPa 0,0 l/m N 0,00 h 0 W/m 0,0 km/h (0 Bft)
04.03.2012 23:00 4,2 C 94 % 1014,7 hPa 0,0 l/m N 0,00 h 0 W/m 0,1 km/h (0 Bft)
Min-Datum _ 27.02.12 03.03.12 04.03.12 - - - - 27.02.12
_ Min-Zeit 08:50 16:55 23:50 - - - - 00:20
Minimum _ -1,7 C 46 % 1014,5 hPa - - - - 0,0 km/h (0 Bft)
Max-Datum _ 02.03.12 02.03.12 27.02.12 28.02.12 - 27.02.12 29.02.12 29.02.12
_ Max-Zeit 15:30 09:15 11:55 07:05 - 11:30 13:55 15:30
Maximum _ 16,5 C 100 % 1028,2 hPa 0,2 l/m - 0,08 h 687 W/m 20,9 km/h
O-NO (4 Bft)
Durchschnitt _ 5,8 C 88 % 1023,5 hPa #0,6 l/m NO #33:15 h 222 W/m 4,8 km/h (1 Bft)